Time;durP1;ratioP1;P1;durP2;ratioP2;P2;SDS_P1;SDS_P2;PMS_P1;PMS_P2;Temp;Humidity;BMP_temperature;BMP_pressure;BME280_temperature;BME280_humidity;BME280_pressure;Samples;Min_cycle;Max_cycle;Signal;HPM_P1;HPM_P2
2021/12/11 00:01:40;;;;;;;;;;;;;;;4.53;93.31;99223.16;5054068;28;861;-59
2021/12/11 00:04:12;;;;;;;;;;;;;;;4.40;93.60;99234.38;5054090;28;1898;-59
2021/12/11 00:06:44;;;;;;;;;;;;;;;4.33;94.18;99231.53;5053717;28;1311;-59
2021/12/11 00:09:12;;;;;;;;;;;;;;;4.30;94.79;99232.31;5053825;28;905;-59
2021/12/11 16:07:09;;;;;;;;;;;;;;;11.02;86.15;99296.03;5003996;28;1494;-59
2021/12/11 16:09:42;;;;;;;;;;;;;;;11.00;86.28;99290.91;5014243;28;905;-59
2021/12/11 16:12:12;;;;;;;;;;;;;;;10.98;85.91;99309.91;5013952;28;818;-59
2021/12/11 16:14:39;;;;;;;;;;;;;;;10.89;86.05;99297.81;5013900;28;815;-59
2021/12/11 16:17:07;;;;;;;;;;;;;;;10.80;85.85;99290.06;5014079;28;906;-59
2021/12/11 16:19:35;;;;;;;;;;;;;;;10.92;86.04;99297.75;5014032;28;783;-59
2021/12/11 16:22:08;;;;;;;;;;;;;;;11.01;85.72;99306.31;5014013;28;798;-59
2021/12/11 16:24:40;;;;;;;;;;;;;;;11.02;85.51;99301.56;5013872;28;1938;-59
2021/12/11 16:27:07;;;;;;;;;;;;;;;11.00;85.41;99290.16;5013873;28;1027;-59
2021/12/11 16:29:34;;;;;;;;;;;;;;;11.05;85.06;99300.72;5013841;28;886;-59
2021/12/11 16:32:01;;;;;;;;;;;;;;;11.14;84.55;99301.00;5014024;28;787;-59
2021/12/11 16:34:28;;;;;;;;;;;;;;;11.16;84.59;99301.38;5014023;28;811;-59
2021/12/11 16:36:55;;;;;;;;;;;;;;;11.12;84.65;99297.88;5013601;28;881;-60
2021/12/11 16:39:23;;;;;;;;;;;;;;;11.10;83.39;99285.66;4996199;28;810;-59
2021/12/11 16:41:55;;;;;;;;;;;;;;;11.28;81.75;99288.13;5013679;28;954;-59
2021/12/11 16:44:23;;;;;;;;;;;;;;;11.41;81.40;99287.13;5013667;28;1890;-60
2021/12/11 16:47:02;;;;;;;;;;;;;;;11.58;79.82;99290.78;5013491;28;926;-59
2021/12/11 16:49:30;;;;;;;;;;;;;;;11.84;79.01;99274.50;5013485;28;783;-59
2021/12/11 16:51:57;;;;;;;;;;;;;;;11.89;79.32;99276.06;5013435;28;803;-59
2021/12/11 16:54:26;;;;;;;;;;;;;;;11.83;79.62;99272.97;5013418;28;802;-60
2021/12/11 16:56:53;;;;;;;;;;;;;;;11.76;80.12;99270.34;5013380;28;786;-60
2021/12/11 16:59:20;;;;;;;;;;;;;;;11.74;80.07;99270.75;5013301;28;811;-59
2021/12/11 17:01:48;;;;;;;;;;;;;;;11.75;79.68;99272.31;5013562;28;846;-59
2021/12/11 17:04:15;;;;;;;;;;;;;;;11.82;79.69;99285.22;5013120;28;2026;-59
2021/12/11 17:06:45;;;;;;;;;;;;;;;11.85;80.30;99276.09;5013207;28;914;-60
2021/12/11 17:09:15;;;;;;;;;;;;;;;11.86;80.04;99277.63;5012955;28;1331;-60
2021/12/11 17:11:42;;;;;;;;;;;;;;;11.88;79.55;99263.38;5013210;28;891;-59
2021/12/11 17:14:08;;;;;;;;;;;;;;;12.00;78.44;99260.03;5013044;28;902;-59
2021/12/11 17:16:36;;;;;;;;;;;;;;;12.03;77.41;99254.41;5012993;28;811;-60
2021/12/11 17:19:04;;;;;;;;;;;;;;;12.18;75.95;99248.56;5013296;28;858;-59
2021/12/11 17:21:32;;;;;;;;;;;;;;;12.17;75.63;99253.34;5012866;28;835;-59
2021/12/11 17:24:00;;;;;;;;;;;;;;;12.21;75.59;99248.50;5012467;28;1923;-59
2021/12/11 17:26:26;;;;;;;;;;;;;;;12.16;76.10;99237.13;5012384;28;850;-59
2021/12/11 17:28:55;;;;;;;;;;;;;;;12.01;77.05;99228.31;5012734;28;850;-59
2021/12/11 17:31:24;;;;;;;;;;;;;;;11.77;78.78;99242.22;5013399;28;780;-60
2021/12/11 17:33:51;;;;;;;;;;;;;;;11.43;81.87;99236.91;5012816;28;857;-59
2021/12/11 17:36:19;;;;;;;;;;;;;;;11.15;83.84;99236.16;5012749;28;799;-59
2021/12/11 17:38:47;;;;;;;;;;;;;;;10.98;85.53;99240.78;5012484;28;1047;-59
2021/12/11 17:41:15;;;;;;;;;;;;;;;10.91;86.37;99229.84;5012665;28;908;-59
2021/12/11 17:43:41;;;;;;;;;;;;;;;10.93;86.26;99224.69;5012427;28;1950;-60
2021/12/11 17:46:09;;;;;;;;;;;;;;;10.98;85.72;99240.78;5012821;28;839;-59
2021/12/11 17:48:36;;;;;;;;;;;;;;;11.06;84.87;99233.16;5012462;28;815;-59
2021/12/11 17:51:04;;;;;;;;;;;;;;;11.10;84.42;99238.66;5012384;28;854;-59
2021/12/11 17:53:33;;;;;;;;;;;;;;;11.13;84.29;99237.81;5012421;28;823;-59
2021/12/11 17:56:01;;;;;;;;;;;;;;;11.16;84.27;99234.97;5012334;28;893;-60
2021/12/11 17:58:31;;;;;;;;;;;;;;;11.22;83.71;99249.91;5012288;28;787;-59
2021/12/11 18:01:08;;;;;;;;;;;;;;;11.28;83.13;99250.19;5012180;28;866;-59
2021/12/11 18:03:36;;;;;;;;;;;;;;;11.31;83.92;99248.56;5012932;28;919;-59
2021/12/11 18:06:04;;;;;;;;;;;;;;;11.32;83.57;99256.44;5012209;28;1875;-59
2021/12/11 18:08:34;;;;;;;;;;;;;;;11.38;82.95;99251.22;4994120;28;2218;-60
2021/12/11 18:11:05;;;;;;;;;;;;;;;11.40;82.85;99237.75;5012026;28;902;-60
2021/12/11 18:13:34;;;;;;;;;;;;;;;11.41;83.09;99228.22;5012154;28;848;-60
2021/12/11 18:16:18;;;;;;;;;;;;;;;11.46;82.79;99225.00;5012120;28;826;-59
2021/12/11 18:18:56;;;;;;;;;;;;;;;11.53;81.60;99210.25;5012032;28;807;-60
2021/12/11 18:21:30;;;;;;;;;;;;;;;11.71;79.72;99198.84;5011950;28;795;-59
2021/12/11 18:23:56;;;;;;;;;;;;;;;11.87;77.74;99209.22;5011914;28;1971;-59
2021/12/11 18:26:24;;;;;;;;;;;;;;;11.98;77.31;99204.28;5012067;28;865;-59
2021/12/11 18:28:51;;;;;;;;;;;;;;;12.18;75.80;99205.06;5011814;28;850;-59
2021/12/11 18:31:20;;;;;;;;;;;;;;;12.28;74.69;99197.69;5011868;28;963;-59
2021/12/11 18:33:47;;;;;;;;;;;;;;;12.36;74.63;99198.34;5011783;28;888;-59
2021/12/11 18:36:16;;;;;;;;;;;;;;;12.39;74.03;99201.00;5011579;28;870;-60
2021/12/11 18:38:43;;;;;;;;;;;;;;;12.44;73.78;99196.97;4994292;28;834;-59
2021/12/11 18:41:12;;;;;;;;;;;;;;;12.42;73.70;99188.31;5011706;28;795;-60
2021/12/11 18:43:40;;;;;;;;;;;;;;;12.49;73.07;99182.59;5011775;28;859;-59
2021/12/11 18:46:09;;;;;;;;;;;;;;;12.67;71.68;99173.84;5011703;28;1887;-59
2021/12/11 18:48:36;;;;;;;;;;;;;;;12.60;73.00;99177.59;4994053;28;1279;-59
2021/12/11 18:51:08;;;;;;;;;;;;;;;12.64;71.98;99158.88;5011698;28;815;-59
2021/12/11 18:53:37;;;;;;;;;;;;;;;12.65;71.80;99160.44;5011624;28;846;-59
2021/12/11 18:56:04;;;;;;;;;;;;;;;12.73;70.92;99152.72;5011948;28;835;-59
2021/12/11 18:58:34;;;;;;;;;;;;;;;12.82;71.06;99158.47;5011923;28;910;-59
2021/12/11 19:01:21;;;;;;;;;;;;;;;12.80;71.51;99174.75;5011624;28;811;-59
2021/12/11 19:03:50;;;;;;;;;;;;;;;12.74;71.75;99193.13;5011450;28;1882;-59
2021/12/11 19:06:20;;;;;;;;;;;;;;;12.66;72.06;99206.34;5011449;28;853;-60
2021/12/11 19:08:46;;;;;;;;;;;;;;;12.61;72.75;99203.31;5011283;28;1318;-59
2021/12/11 19:11:20;;;;;;;;;;;;;;;12.60;72.84;99213.63;5011783;28;874;-59
2021/12/11 19:13:47;;;;;;;;;;;;;;;12.64;72.96;99216.31;4993864;28;930;-59
2021/12/11 19:16:14;;;;;;;;;;;;;;;12.52;73.84;99208.66;5011475;28;862;-60
2021/12/11 19:18:41;;;;;;;;;;;;;;;12.42;74.69;99204.94;5011311;28;1030;-59
2021/12/11 19:21:10;;;;;;;;;;;;;;;12.36;74.68;99210.19;5011359;28;858;-59
2021/12/11 19:23:42;;;;;;;;;;;;;;;12.35;74.75;99205.06;5011417;28;913;-59
2021/12/11 19:26:08;;;;;;;;;;;;;;;12.33;75.08;99202.75;5011179;28;1997;-59
2021/12/11 19:28:37;;;;;;;;;;;;;;;12.28;75.44;99206.00;5011397;28;799;-60
2021/12/11 19:31:24;;;;;;;;;;;;;;;12.26;75.79;99216.75;5011455;28;846;-59
2021/12/11 19:33:52;;;;;;;;;;;;;;;12.37;74.48;99208.97;5011155;28;1433;-59
2021/12/11 19:36:22;;;;;;;;;;;;;;;12.41;74.81;99200.59;5011903;28;768;-59
2021/12/11 19:38:51;;;;;;;;;;;;;;;12.37;75.04;99214.50;5011387;28;804;-59
2021/12/11 19:41:20;;;;;;;;;;;;;;;12.31;75.05;99218.22;5011267;28;926;-59
2021/12/11 19:43:48;;;;;;;;;;;;;;;12.32;74.83;99203.94;4993688;28;1933;-59
2021/12/11 19:46:15;;;;;;;;;;;;;;;12.50;73.59;99194.47;5011206;28;815;-59
2021/12/11 19:48:43;;;;;;;;;;;;;;;12.57;74.10;99194.31;4995384;28;1310;-59
2021/12/11 19:51:16;;;;;;;;;;;;;;;12.61;73.91;99200.53;5014590;28;893;-59
2021/12/11 19:53:45;;;;;;;;;;;;;;;12.57;73.42;99186.00;5014599;28;811;-59
2021/12/11 19:56:13;;;;;;;;;;;;;;;12.63;73.24;99201.69;5014576;28;893;-59
2021/12/11 19:58:39;;;;;;;;;;;;;;;12.66;73.06;99189.72;5014448;28;866;-59
2021/12/11 20:01:08;;;;;;;;;;;;;;;12.66;72.42;99186.94;5014441;28;806;-59
2021/12/11 20:03:36;;;;;;;;;;;;;;;12.72;71.96;99176.13;5014430;28;931;-59
2021/12/11 20:06:07;;;;;;;;;;;;;;;12.79;71.71;99175.97;5014220;28;1890;-59
2021/12/11 20:08:37;;;;;;;;;;;;;;;12.80;71.65;99174.75;5014177;28;1258;-59
2021/12/11 20:11:09;;;;;;;;;;;;;;;12.81;71.41;99167.22;5014329;28;787;-59
2021/12/11 20:13:40;;;;;;;;;;;;;;;12.84;71.71;99182.97;5014246;28;898;-59
2021/12/11 20:16:08;;;;;;;;;;;;;;;12.75;72.24;99172.47;5014099;28;918;-59
2021/12/11 20:18:37;;;;;;;;;;;;;;;12.73;72.08;99172.13;5014144;28;842;-59
2021/12/11 20:21:09;;;;;;;;;;;;;;;12.74;71.82;99162.63;5014038;28;791;-59
2021/12/11 20:23:36;;;;;;;;;;;;;;;12.72;72.39;99162.28;5014372;28;895;-59
2021/12/11 20:26:03;;;;;;;;;;;;;;;12.71;72.32;99171.00;5014162;28;1910;-59
2021/12/11 20:28:30;;;;;;;;;;;;;;;12.68;72.55;99169.13;5014070;28;1162;-59
2021/12/11 20:30:59;;;;;;;;;;;;;;;12.65;72.15;99154.09;5014002;28;814;-59
2021/12/11 20:33:26;;;;;;;;;;;;;;;12.63;72.64;99150.97;5013801;28;823;-59
2021/12/11 20:35:53;;;;;;;;;;;;;;;12.58;72.79;99151.50;5013842;28;807;-59
2021/12/11 20:38:22;;;;;;;;;;;;;;;12.61;72.37;99147.84;5013796;28;811;-59
2021/12/11 20:40:57;;;;;;;;;;;;;;;12.62;72.42;99154.97;5014027;28;826;-59
2021/12/11 20:43:24;;;;;;;;;;;;;;;12.61;72.98;99142.31;5013520;28;1048;-59
2021/12/11 20:45:53;;;;;;;;;;;;;;;12.57;72.49;99136.09;5013517;28;1886;-59
2021/12/11 20:48:20;;;;;;;;;;;;;;;12.61;72.29;99136.78;5013651;28;819;-60
2021/12/11 20:50:50;;;;;;;;;;;;;;;12.66;71.72;99136.28;5013546;28;877;-59
2021/12/11 20:53:18;;;;;;;;;;;;;;;12.70;71.66;99130.66;5013755;28;819;-59
2021/12/11 20:55:45;;;;;;;;;;;;;;;12.68;71.92;99125.53;5013365;28;799;-59
2021/12/11 20:58:12;;;;;;;;;;;;;;;12.68;71.41;99125.53;5013450;28;905;-59
2021/12/11 21:00:41;;;;;;;;;;;;;;;12.61;72.00;99120.13;4995538;28;1414;-59
2021/12/11 21:03:09;;;;;;;;;;;;;;;12.50;71.97;99108.53;4995883;28;1259;-59
2021/12/11 21:05:39;;;;;;;;;;;;;;;12.49;71.62;99121.63;5013773;28;1928;-59
2021/12/11 21:08:08;;;;;;;;;;;;;;;12.50;71.66;99120.41;5013002;28;1347;-59
2021/12/11 21:10:37;;;;;;;;;;;;;;;12.43;71.80;99103.94;5013146;28;803;-59
2021/12/11 21:13:08;;;;;;;;;;;;;;;12.39;71.87;99117.88;5012992;28;851;-59
2021/12/11 21:15:43;;;;;;;;;;;;;;;12.33;72.74;99116.06;5013034;28;885;-59
2021/12/11 21:18:11;;;;;;;;;;;;;;;12.16;73.97;99112.47;5013611;28;874;-59
2021/12/11 21:20:38;;;;;;;;;;;;;;;12.00;75.09;99108.47;5013518;28;985;-59
2021/12/11 21:23:07;;;;;;;;;;;;;;;11.88;75.80;99113.84;5013682;28;893;-59
2021/12/11 21:25:39;;;;;;;;;;;;;;;11.75;76.27;99105.41;5012748;28;1981;-59
2021/12/11 21:28:09;;;;;;;;;;;;;;;11.67;76.68;99109.53;5012936;28;815;-59
2021/12/11 21:30:41;;;;;;;;;;;;;;;11.63;76.96;99112.41;5012682;28;815;-59
2021/12/11 21:33:10;;;;;;;;;;;;;;;11.55;77.70;99113.75;5012805;28;803;-59
2021/12/11 21:35:38;;;;;;;;;;;;;;;11.57;76.85;99100.25;4995096;28;1509;-59
2021/12/11 21:38:07;;;;;;;;;;;;;;;11.76;76.69;99091.16;5012878;28;807;-60
2021/12/11 21:40:39;;;;;;;;;;;;;;;11.87;75.25;99079.84;5012662;28;799;-59
2021/12/11 21:43:09;;;;;;;;;;;;;;;12.05;74.00;99087.78;5012601;28;818;-59
2021/12/11 21:45:41;;;;;;;;;;;;;;;12.13;73.99;99082.88;4994972;28;1939;-59
2021/12/11 21:48:10;;;;;;;;;;;;;;;12.21;72.83;99092.59;5012435;28;906;-59
2021/12/11 21:50:39;;;;;;;;;;;;;;;12.29;72.90;99099.53;5012472;28;846;-58
2021/12/11 21:53:05;;;;;;;;;;;;;;;12.32;72.66;99093.13;5012434;28;795;-59
2021/12/11 21:55:32;;;;;;;;;;;;;;;12.32;72.41;99082.03;5012306;28;831;-59
2021/12/11 21:58:02;;;;;;;;;;;;;;;12.28;72.56;99075.00;5012339;28;810;-59
2021/12/11 22:00:31;;;;;;;;;;;;;;;12.22;73.01;99063.66;5012390;28;927;-59
2021/12/11 22:03:00;;;;;;;;;;;;;;;12.21;72.73;99054.56;5012524;28;944;-59
2021/12/11 22:05:35;;;;;;;;;;;;;;;12.26;72.52;99056.03;5012750;28;1890;-59
2021/12/11 22:08:03;;;;;;;;;;;;;;;12.36;71.67;99068.88;5012077;28;1429;-59
2021/12/11 22:10:32;;;;;;;;;;;;;;;12.40;72.37;99074.34;5011651;28;842;-59
2021/12/11 22:12:59;;;;;;;;;;;;;;;12.34;73.36;99087.91;5012208;28;882;-59
2021/12/11 22:15:30;;;;;;;;;;;;;;;12.23;75.02;99093.72;5012055;28;819;-59
2021/12/11 22:17:57;;;;;;;;;;;;;;;12.05;76.72;99091.34;5012213;28;880;-59
2021/12/11 22:20:31;;;;;;;;;;;;;;;11.89;78.27;99082.22;5011960;28;855;-59
2021/12/11 22:22:58;;;;;;;;;;;;;;;11.69;79.54;99087.75;5011987;28;799;-59
2021/12/11 22:25:30;;;;;;;;;;;;;;;11.58;80.53;99085.97;5011916;28;1894;-60
2021/12/11 22:27:58;;;;;;;;;;;;;;;11.46;81.68;99083.88;5011913;28;783;-59
2021/12/11 22:30:29;;;;;;;;;;;;;;;11.39;82.22;99075.69;5011936;28;799;-59
2021/12/11 22:32:56;;;;;;;;;;;;;;;11.36;83.01;99077.34;5011808;28;798;-59
2021/12/11 22:35:26;;;;;;;;;;;;;;;11.33;83.11;99069.09;5011867;28;883;-59
2021/12/11 22:37:53;;;;;;;;;;;;;;;11.31;83.29;99068.72;5011821;28;869;-60
2021/12/11 22:40:55;;;;;;;;;;;;;;;11.34;83.27;99068.69;5011756;28;831;-59
2021/12/11 22:43:26;;;;;;;;;;;;;;;11.33;83.48;99047.75;4932249;29;1456;-59
2021/12/11 22:45:53;;;;;;;;;;;;;;;11.36;83.18;99040.59;4916287;29;1898;-60
2021/12/11 22:48:22;;;;;;;;;;;;;;;11.39;83.14;99029.47;4932193;29;816;-59
2021/12/11 22:50:52;;;;;;;;;;;;;;;11.43;82.55;99032.91;4932195;29;1035;-59
2021/12/11 22:53:21;;;;;;;;;;;;;;;11.53;82.51;99036.66;4932474;29;903;-59
2021/12/11 22:55:49;;;;;;;;;;;;;;;11.62;81.61;99036.88;4932071;29;812;-59
2021/12/11 22:58:20;;;;;;;;;;;;;;;11.67;81.12;99029.25;4932104;29;927;-60
2021/12/11 23:00:58;;;;;;;;;;;;;;;11.85;79.16;99026.88;4932190;29;816;-59
2021/12/11 23:03:31;;;;;;;;;;;;;;;11.96;77.87;99016.38;4931951;29;1037;-60
2021/12/11 23:05:58;;;;;;;;;;;;;;;12.10;77.46;99017.25;4932023;29;1978;-59
2021/12/11 23:08:27;;;;;;;;;;;;;;;12.13;77.16;99008.09;4931900;29;1333;-60
2021/12/11 23:10:58;;;;;;;;;;;;;;;12.11;77.53;99016.81;4932291;29;954;-59
2021/12/11 23:13:28;;;;;;;;;;;;;;;12.13;77.03;99013.63;4931965;29;875;-59
2021/12/11 23:15:57;;;;;;;;;;;;;;;12.20;76.65;99007.91;4932157;29;844;-59
2021/12/11 23:18:35;;;;;;;;;;;;;;;12.26;76.50;99022.81;5008061;28;887;-59
2021/12/11 23:21:09;;;;;;;;;;;;;;;12.32;76.04;99026.63;5012195;28;736;-59
2021/12/11 23:23:43;;;;;;;;;;;;;;;12.32;75.82;99031.38;5013305;28;787;-60
2021/12/11 23:26:13;;;;;;;;;;;;;;;12.41;74.59;99026.00;5014981;28;1938;-59
2021/12/11 23:28:49;;;;;;;;;;;;;;;12.56;73.86;99007.03;5014998;28;823;-59
2021/12/11 23:31:19;;;;;;;;;;;;;;;12.63;73.26;99017.91;5015029;28;846;-59
2021/12/11 23:33:59;;;;;;;;;;;;;;;12.68;73.08;99006.31;5015158;28;882;-60
2021/12/11 23:36:28;;;;;;;;;;;;;;;12.73;72.75;99010.53;5015215;28;1038;-59
2021/12/11 23:39:02;;;;;;;;;;;;;;;12.72;72.31;99001.47;5015070;28;861;-59
2021/12/11 23:41:31;;;;;;;;;;;;;;;12.82;71.55;99002.38;4997630;28;862;-59
2021/12/11 23:44:07;;;;;;;;;;;;;;;12.91;71.50;99004.50;5014736;28;1945;-59
2021/12/11 23:46:34;;;;;;;;;;;;;;;13.02;70.70;98996.69;5015346;28;810;-60
2021/12/11 23:49:04;;;;;;;;;;;;;;;13.19;69.98;98995.41;5014839;28;873;-59
2021/12/11 23:51:32;;;;;;;;;;;;;;;13.31;68.56;98993.91;5014893;28;874;-59
2021/12/11 23:54:07;;;;;;;;;;;;;;;13.47;67.98;98987.50;5014535;28;857;-59
2021/12/11 23:56:36;;;;;;;;;;;;;;;13.57;67.57;98993.94;5014520;28;882;-59
2021/12/11 23:59:08;;;;;;;;;;;;;;;13.59;68.06;98997.84;5014555;28;823;-59
